Time;durP1;ratioP1;P1;durP2;ratioP2;P2;SDS_P1;SDS_P2;PMS_P1;PMS_P2;Temp;Humidity;BMP_temperature;BMP_pressure;BME280_temperature;BME280_humidity;BME280_pressure;Samples;Min_cycle;Max_cycle;Signal;HPM_P1;HPM_P2
2022/09/06 00:00:33;;;;;;;2.38;0.82;;;26.30;61.70;;;;;;5073254;28;20031;-87
2022/09/06 00:02:59;;;;;;;2.25;0.82;;;26.30;62.30;;;;;;5073497;28;20016;-87
2022/09/06 00:05:27;;;;;;;3.40;0.52;;;26.20;62.30;;;;;;5073334;28;20464;-88
2022/09/06 00:07:52;;;;;;;3.30;1.05;;;26.10;62.10;;;;;;5073458;28;20024;-88
2022/09/06 00:10:18;;;;;;;1.17;0.45;;;26.00;63.40;;;;;;5073555;28;20036;-88
2022/09/06 00:12:44;;;;;;;1.52;0.60;;;26.10;62.70;;;;;;5073102;28;20044;-87
2022/09/06 00:15:10;;;;;;;2.72;0.80;;;26.10;62.20;;;;;;5073251;28;20050;-87
2022/09/06 00:17:35;;;;;;;3.28;0.75;;;26.00;63.20;;;;;;5073346;28;20021;-87
2022/09/06 00:20:02;;;;;;;1.40;0.60;;;26.00;63.30;;;;;;5072994;28;20472;-87
2022/09/06 00:22:28;;;;;;;1.30;0.50;;;26.00;62.50;;;;;;5073094;28;20032;-87
2022/09/06 00:24:54;;;;;;;1.75;0.65;;;26.10;61.80;;;;;;5073072;28;20086;-87
2022/09/06 00:27:19;;;;;;;1.60;0.50;;;26.20;61.60;;;;;;5073303;28;20375;-87
2022/09/06 00:29:45;;;;;;;0.60;0.30;;;26.30;61.20;;;;;;5072993;28;20021;-87
2022/09/06 00:32:10;;;;;;;0.60;0.40;;;26.40;61.00;;;;;;5073064;28;20090;-87
2022/09/06 00:34:36;;;;;;;2.10;0.60;;;26.40;60.80;;;;;;5073023;28;20042;-87
2022/09/06 00:37:02;;;;;;;1.75;0.60;;;26.50;60.90;;;;;;5073240;28;20028;-87
2022/09/06 00:39:27;;;;;;;3.72;0.80;;;26.50;62.00;;;;;;5073237;28;20115;-87
2022/09/06 00:41:53;;;;;;;0.82;0.52;;;26.30;62.90;;;;;;5072986;28;20028;-87
2022/09/06 00:44:18;;;;;;;2.83;1.10;;;25.90;63.80;;;;;;5072848;28;20033;-87
2022/09/06 00:46:46;;;;;;;1.23;0.60;;;25.60;64.90;;;;;;5073123;28;20028;-87
2022/09/06 00:49:22;;;;;;;1.77;0.70;;;25.50;65.10;;;;;;5072781;28;20526;-87
2022/09/06 00:51:52;;;;;;;1.27;0.60;;;25.50;64.90;;;;;;5072915;28;20420;-87
2022/09/06 00:54:18;;;;;;;1.10;0.70;;;25.60;64.60;;;;;;5073080;28;20116;-87
2022/09/06 00:56:44;;;;;;;1.27;0.50;;;25.70;64.00;;;;;;5073132;28;20111;-87
2022/09/06 00:59:10;;;;;;;1.50;0.40;;;25.80;63.80;;;;;;5072532;28;20036;-87
2022/09/06 01:01:36;;;;;;;1.45;0.50;;;25.90;64.20;;;;;;5072761;28;20017;-87
2022/09/06 01:04:02;;;;;;;3.90;0.90;;;25.90;63.80;;;;;;5075741;28;20032;-87
2022/09/06 01:07:05;;;;;;;3.80;1.15;;;25.90;66.10;;;;;;5076544;28;20028;-87
2022/09/06 01:10:02;;;;;;;4.00;0.77;;;25.50;68.20;;;;;;5039101;28;20041;-87
2022/09/06 01:13:12;;;;;;;1.83;0.80;;;25.00;69.00;;;;;;5076686;28;20036;-87
2022/09/06 01:15:55;;;;;;;3.05;0.65;;;25.00;69.80;;;;;;5065728;28;20483;-86
2022/09/06 01:19:03;;;;;;;4.07;1.10;;;25.00;69.70;;;;;;5076691;28;20036;-86
2022/09/06 01:21:54;;;;;;;1.75;0.60;;;25.20;69.50;;;;;;5076568;28;20092;-86
2022/09/06 01:24:59;;;;;;;1.63;0.80;;;25.20;68.20;;;;;;5076586;28;20032;-86
2022/09/06 01:27:37;;;;;;;1.35;0.52;;;25.20;67.50;;;;;;5076251;28;20035;-86
2022/09/06 01:30:07;;;;;;;1.38;0.50;;;25.20;66.50;;;;;;5076204;28;20456;-86
2022/09/06 01:32:57;;;;;;;0.90;0.55;;;25.40;66.00;;;;;;5076136;28;20106;-86
2022/09/06 01:35:48;;;;;;;4.53;0.93;;;25.50;67.50;;;;;;5075981;28;20498;-86
2022/09/06 01:38:14;;;;;;;4.65;0.73;;;25.50;69.00;;;;;;5076014;28;20416;-85
2022/09/06 01:40:40;;;;;;;2.55;0.77;;;25.40;69.20;;;;;;5075845;28;20053;-86
2022/09/06 01:43:10;;;;;;;1.00;0.65;;;25.30;67.90;;;;;;5075928;28;20104;-86
2022/09/06 01:46:04;;;;;;;6.00;1.40;;;25.20;68.50;;;;;;5076075;28;20392;-86
2022/09/06 01:48:48;;;;;;;1.00;0.57;;;25.20;70.40;;;;;;5075834;28;20029;-86
2022/09/06 01:51:13;;;;;;;2.00;0.90;;;25.00;69.00;;;;;;5075505;28;20483;-86
2022/09/06 01:53:51;;;;;;;1.40;0.68;;;25.10;69.00;;;;;;5075980;28;20032;-86
2022/09/06 01:56:50;;;;;;;1.20;0.55;;;25.10;68.30;;;;;;5075765;28;20029;-86
2022/09/06 01:59:25;;;;;;;1.73;0.60;;;25.10;67.80;;;;;;5075623;28;20471;-86
2022/09/06 02:02:08;;;;;;;1.10;0.50;;;25.20;67.40;;;;;;5075514;28;20046;-86
2022/09/06 02:05:05;;;;;;;1.42;0.50;;;25.30;67.00;;;;;;5075615;28;20379;-86
2022/09/06 02:07:32;;;;;;;1.48;0.68;;;25.40;66.60;;;;;;5074733;28;20094;-86
2022/09/06 02:10:13;;;;;;;1.13;0.50;;;25.40;67.00;;;;;;5075608;28;20064;-87
2022/09/06 02:12:42;;;;;;;3.08;0.57;;;25.50;66.40;;;;;;5075682;28;20059;-87
2022/09/06 02:15:17;;;;;;;3.95;1.50;;;25.50;66.30;;;;;;5075250;28;20024;-87
2022/09/06 02:17:52;;;;;;;1.42;0.85;;;25.50;69.40;;;;;;5076216;28;20472;-90
2022/09/06 02:20:25;;;;;;;1.73;0.60;;;25.40;69.80;;;;;;5076179;28;20028;-86
2022/09/06 02:22:55;;;;;;;1.90;0.50;;;25.20;70.00;;;;;;5075212;28;20028;-86
2022/09/06 02:25:25;;;;;;;2.15;0.85;;;24.90;70.40;;;;;;5075307;28;20048;-86
2022/09/06 02:27:51;;;;;;;1.55;0.65;;;24.80;71.00;;;;;;5075374;28;20067;-86
2022/09/06 02:30:16;;;;;;;2.45;1.02;;;24.80;70.20;;;;;;5074976;28;20067;-86
2022/09/06 02:32:49;;;;;;;2.58;0.88;;;24.90;71.40;;;;;;5075401;28;20055;-86
2022/09/06 02:35:16;;;;;;;1.52;1.08;;;24.80;71.30;;;;;;5075176;28;20380;-86
2022/09/06 02:37:43;;;;;;;3.58;1.60;;;24.80;71.90;;;;;;5075124;28;20054;-86
2022/09/06 02:40:09;;;;;;;5.18;1.90;;;24.60;73.50;;;;;;5075179;28;20024;-86
2022/09/06 02:42:35;;;;;;;3.33;2.00;;;24.50;74.80;;;;;;5074506;28;20499;-86
2022/09/06 02:45:01;;;;;;;3.05;2.15;;;24.20;75.60;;;;;;5074734;28;20070;-85
2022/09/06 02:47:26;;;;;;;2.83;1.40;;;24.10;76.20;;;;;;5074502;28;20068;-86
2022/09/06 02:49:52;;;;;;;5.05;2.17;;;24.00;76.70;;;;;;5074867;28;20031;-85
2022/09/06 02:52:17;;;;;;;2.97;2.22;;;24.00;77.30;;;;;;5074906;28;20514;-86
2022/09/06 02:54:43;;;;;;;1.40;1.10;;;23.80;78.10;;;;;;5074490;28;20029;-86
2022/09/06 02:57:09;;;;;;;2.03;0.90;;;23.80;77.60;;;;;;5074373;28;20028;-86
2022/09/06 02:59:35;;;;;;;1.60;0.70;;;23.90;76.50;;;;;;5074629;28;20107;-86
2022/09/06 03:02:00;;;;;;;1.40;0.77;;;24.00;75.20;;;;;;5074343;28;20021;-86
2022/09/06 03:04:26;;;;;;;2.50;1.40;;;24.10;74.00;;;;;;5074150;28;20078;-86
2022/09/06 03:06:51;;;;;;;3.85;1.60;;;24.30;74.00;;;;;;5074535;28;20078;-86
2022/09/06 03:09:17;;;;;;;1.95;0.77;;;24.30;74.40;;;;;;5074495;28;20028;-87
2022/09/06 03:11:43;;;;;;;2.42;0.77;;;24.40;73.60;;;;;;5074203;28;20115;-87
2022/09/06 03:14:08;;;;;;;1.67;0.90;;;24.40;73.30;;;;;;5074104;28;20037;-86
2022/09/06 03:16:35;;;;;;;1.63;0.70;;;24.50;72.60;;;;;;5074124;28;20028;-86
2022/09/06 03:19:01;;;;;;;1.65;1.33;;;24.40;73.40;;;;;;5074241;28;20029;-86
2022/09/06 03:21:26;;;;;;;1.85;1.23;;;24.40;74.20;;;;;;5074017;28;20151;-87
2022/09/06 03:23:53;;;;;;;1.23;0.60;;;24.40;74.80;;;;;;5074211;28;20024;-86
2022/09/06 03:26:19;;;;;;;1.00;0.68;;;24.40;73.60;;;;;;5073402;28;20040;-87
2022/09/06 03:28:44;;;;;;;1.50;0.52;;;24.50;72.60;;;;;;5073949;28;20396;-87
2022/09/06 03:31:10;;;;;;;1.30;0.50;;;24.60;71.70;;;;;;5074030;28;20032;-87
2022/09/06 03:33:36;;;;;;;1.08;0.40;;;24.70;71.70;;;;;;5077085;28;20031;-84
2022/09/06 03:36:02;;;;;;;0.73;0.43;;;24.80;70.50;;;;;;5080361;28;20440;-86
2022/09/06 03:38:28;;;;;;;1.05;0.75;;;24.90;70.70;;;;;;5073946;28;20035;-86
2022/09/06 03:40:55;;;;;;;1.10;0.40;;;24.90;70.10;;;;;;5073748;28;20078;-86
2022/09/06 03:43:22;;;;;;;1.23;0.43;;;25.00;69.70;;;;;;5073668;28;20020;-87
2022/09/06 03:45:49;;;;;;;1.20;0.40;;;25.00;69.40;;;;;;5073795;28;20103;-87
2022/09/06 03:48:16;;;;;;;2.17;0.40;;;25.10;69.20;;;;;;5073660;28;20112;-86
2022/09/06 03:50:47;;;;;;;1.65;0.50;;;25.20;69.00;;;;;;5073345;28;20108;-86
2022/09/06 03:53:14;;;;;;;1.13;0.70;;;25.20;68.80;;;;;;5073909;28;20025;-86
2022/09/06 03:55:44;;;;;;;0.95;0.52;;;25.20;69.60;;;;;;5073507;28;20025;-86
2022/09/06 03:58:10;;;;;;;1.23;0.70;;;25.20;69.80;;;;;;5073745;28;20127;-86
2022/09/06 04:00:36;;;;;;;1.42;0.50;;;25.20;69.60;;;;;;5073770;28;20515;-87
2022/09/06 04:03:01;;;;;;;1.05;0.73;;;25.20;69.90;;;;;;5073759;28;20020;-88
2022/09/06 04:05:27;;;;;;;1.02;0.60;;;25.20;69.10;;;;;;5073465;28;20028;-88
2022/09/06 04:07:52;;;;;;;0.88;0.50;;;25.20;69.10;;;;;;5073299;28;20021;-87
2022/09/06 04:10:18;;;;;;;2.55;0.40;;;25.20;68.90;;;;;;5073514;28;20041;-87
2022/09/06 04:12:44;;;;;;;0.88;0.35;;;25.30;68.90;;;;;;5073042;28;20017;-87
2022/09/06 04:15:10;;;;;;;2.10;0.50;;;25.30;68.60;;;;;;5073073;28;20468;-87
2022/09/06 04:17:36;;;;;;;1.05;0.60;;;25.30;68.60;;;;;;5073517;28;20025;-87
2022/09/06 04:20:02;;;;;;;1.40;0.40;;;25.30;69.70;;;;;;5073444;28;20038;-87
2022/09/06 04:22:28;;;;;;;2.45;0.50;;;25.20;69.60;;;;;;5073448;28;20032;-87
2022/09/06 04:24:53;;;;;;;0.98;0.60;;;25.20;69.20;;;;;;5074454;28;20032;-82
2022/09/06 04:27:19;;;;;;;1.20;0.60;;;25.20;69.20;;;;;;5072941;28;20083;-87
2022/09/06 04:29:45;;;;;;;1.77;0.63;;;25.30;68.90;;;;;;5073195;28;20025;-87
2022/09/06 04:32:10;;;;;;;1.27;0.70;;;25.30;68.60;;;;;;5073198;28;20506;-87
2022/09/06 04:34:36;;;;;;;1.05;0.57;;;25.30;69.40;;;;;;5077086;28;20025;-86
2022/09/06 04:37:01;;;;;;;0.80;0.55;;;25.30;69.00;;;;;;5079945;28;20101;-85
2022/09/06 04:39:28;;;;;;;1.83;1.10;;;25.30;68.60;;;;;;5080494;28;20029;-88
2022/09/06 04:41:54;;;;;;;1.02;0.60;;;25.30;68.70;;;;;;5077144;28;20029;-88
2022/09/06 04:44:19;;;;;;;0.73;0.50;;;25.30;68.50;;;;;;5077039;28;20021;-87
2022/09/06 04:46:45;;;;;;;0.80;0.60;;;25.40;68.50;;;;;;5077410;28;20039;-87
2022/09/06 04:49:11;;;;;;;1.10;0.70;;;25.40;68.40;;;;;;5077124;28;20050;-87
2022/09/06 04:51:38;;;;;;;1.17;0.68;;;25.40;68.40;;;;;;5077108;28;20033;-87
2022/09/06 04:54:04;;;;;;;1.23;0.60;;;25.40;68.10;;;;;;5077146;28;20024;-88
2022/09/06 04:56:30;;;;;;;1.27;0.60;;;25.40;68.00;;;;;;5076877;28;20078;-88
2022/09/06 04:58:55;;;;;;;1.15;0.60;;;25.40;67.80;;;;;;5077060;28;20036;-88
2022/09/06 05:01:21;;;;;;;0.98;0.55;;;25.40;67.80;;;;;;5076492;28;20534;-87
2022/09/06 05:03:47;;;;;;;1.27;0.85;;;25.40;67.80;;;;;;5076892;28;20036;-87
2022/09/06 05:06:19;;;;;;;0.95;0.45;;;25.40;67.90;;;;;;5076615;28;20537;-87
2022/09/06 05:08:45;;;;;;;;;;;25.40;67.70;;;;;;5077130;28;20104;-85
2022/09/06 05:11:11;;;;;;;0.80;0.50;;;25.40;67.70;;;;;;5076171;28;20011;-86
2022/09/06 05:13:37;;;;;;;0.90;0.60;;;25.40;67.50;;;;;;5076426;28;20028;-86
2022/09/06 05:16:05;;;;;;;1.13;0.60;;;25.40;67.30;;;;;;5076449;28;20387;-86
2022/09/06 05:18:31;;;;;;;1.23;0.57;;;25.40;67.30;;;;;;5076805;28;20021;-86
2022/09/06 05:20:57;;;;;;;1.48;1.02;;;25.40;67.30;;;;;;5076219;28;20110;-87
2022/09/06 05:23:24;;;;;;;3.08;1.25;;;25.50;67.50;;;;;;5076280;28;20032;-86
2022/09/06 05:25:50;;;;;;;1.83;1.10;;;25.30;68.50;;;;;;5076099;28;20462;-86
2022/09/06 05:28:17;;;;;;;1.30;0.63;;;25.10;70.40;;;;;;5076372;28;20045;-86
2022/09/06 05:30:42;;;;;;;2.38;0.60;;;25.00;69.80;;;;;;5076598;28;20036;-86
2022/09/06 05:33:09;;;;;;;2.88;0.90;;;25.00;69.40;;;;;;5076084;28;20025;-86
2022/09/06 05:35:35;;;;;;;1.45;0.95;;;25.00;69.10;;;;;;5076385;28;20020;-86
2022/09/06 05:38:00;;;;;;;1.95;0.90;;;25.10;69.00;;;;;;5076504;28;20125;-85
2022/09/06 05:40:26;;;;;;;1.02;0.65;;;25.10;68.70;;;;;;5082376;28;20024;-86
2022/09/06 05:42:52;;;;;;;1.10;0.70;;;25.10;68.40;;;;;;5076021;28;20028;-85
2022/09/06 05:45:17;;;;;;;1.33;0.63;;;25.10;68.40;;;;;;5075740;28;20024;-87
2022/09/06 05:47:43;;;;;;;1.15;0.52;;;25.10;68.30;;;;;;5076110;28;20037;-86
2022/09/06 05:50:09;;;;;;;1.00;0.90;;;25.10;68.20;;;;;;5075343;28;20021;-87
2022/09/06 05:52:35;;;;;;;1.15;0.80;;;25.20;68.30;;;;;;5075850;28;20187;-86
2022/09/06 05:55:01;;;;;;;1.33;0.60;;;25.20;68.40;;;;;;5075383;28;20120;-87
2022/09/06 05:57:27;;;;;;;1.67;0.50;;;25.20;68.30;;;;;;5075938;28;20064;-87
2022/09/06 05:59:52;;;;;;;0.90;0.50;;;25.20;68.10;;;;;;5075723;28;20020;-86
2022/09/06 06:02:21;;;;;;;2.28;1.17;;;25.20;67.90;;;;;;5075812;28;20025;-87
2022/09/06 06:04:47;;;;;;;0.80;0.65;;;25.20;68.20;;;;;;5075553;28;20543;-87
2022/09/06 06:07:13;;;;;;;1.38;0.70;;;25.20;68.40;;;;;;5075569;28;20104;-87
2022/09/06 06:09:39;;;;;;;2.22;1.85;;;25.20;68.30;;;;;;5075671;28;20085;-87
2022/09/06 06:12:06;;;;;;;3.30;2.38;;;25.20;68.80;;;;;;5075727;28;20108;-87
2022/09/06 06:14:31;;;;;;;1.50;0.73;;;25.20;70.30;;;;;;5075520;28;20511;-87
2022/09/06 06:16:57;;;;;;;1.88;1.38;;;25.10;69.60;;;;;;5075680;28;20107;-86
2022/09/06 06:19:22;;;;;;;4.20;1.95;;;25.10;69.90;;;;;;5076587;28;20024;-87
2022/09/06 06:21:48;;;;;;;2.67;1.55;;;25.10;70.30;;;;;;5075840;28;20036;-87
2022/09/06 06:24:14;;;;;;;4.05;3.17;;;25.00;70.60;;;;;;5075258;28;20024;-87
2022/09/06 06:26:39;;;;;;;1.58;0.88;;;24.90;71.40;;;;;;5075238;28;20563;-87
2022/09/06 06:29:08;;;;;;;2.13;1.40;;;24.80;71.00;;;;;;5075603;28;20089;-87
2022/09/06 06:31:35;;;;;;;2.75;1.48;;;24.90;71.40;;;;;;5075410;28;20048;-87
2022/09/06 06:34:02;;;;;;;3.95;1.63;;;24.80;71.50;;;;;;5075222;28;20020;-87
2022/09/06 06:36:30;;;;;;;2.42;1.80;;;24.80;71.20;;;;;;5075374;28;20041;-86
2022/09/06 06:38:57;;;;;;;5.50;3.55;;;24.80;71.30;;;;;;5075543;28;20488;-86
2022/09/06 06:41:28;;;;;;;2.40;1.40;;;24.80;71.70;;;;;;5082720;28;20029;-85
2022/09/06 06:43:59;;;;;;;1.73;1.60;;;24.80;71.70;;;;;;5080024;28;20130;-85
2022/09/06 06:46:27;;;;;;;2.83;2.50;;;24.80;71.40;;;;;;5075103;28;20081;-86
2022/09/06 06:48:54;;;;;;;1.65;1.23;;;24.80;71.70;;;;;;5075038;28;20021;-86
2022/09/06 06:51:21;;;;;;;4.18;3.03;;;24.70;71.50;;;;;;5074746;28;20124;-86
2022/09/06 06:53:47;;;;;;;1.88;1.23;;;24.80;72.80;;;;;;5075315;28;20036;-87
2022/09/06 06:56:16;;;;;;;1.83;1.20;;;24.80;72.10;;;;;;5074572;28;20029;-85
2022/09/06 06:58:43;;;;;;;3.05;2.75;;;24.80;71.60;;;;;;5074518;28;20032;-85
2022/09/06 07:01:09;;;;;;;3.50;1.95;;;24.80;72.50;;;;;;5073992;28;20028;-86
2022/09/06 07:03:35;;;;;;;1.85;1.45;;;24.80;72.80;;;;;;5074494;28;20044;-86
2022/09/06 07:06:02;;;;;;;2.35;2.15;;;24.90;71.70;;;;;;5074720;28;20032;-86
2022/09/06 07:08:27;;;;;;;3.97;2.60;;;25.00;71.20;;;;;;5074156;28;20020;-87
2022/09/06 07:10:53;;;;;;;3.53;2.28;;;25.00;72.00;;;;;;5074510;28;20069;-86
2022/09/06 07:13:19;;;;;;;4.68;4.25;;;25.00;71.60;;;;;;5074212;28;20525;-86
2022/09/06 07:15:44;;;;;;;4.55;4.03;;;25.00;73.00;;;;;;5074347;28;20025;-86
2022/09/06 07:18:10;;;;;;;3.83;3.53;;;25.00;73.40;;;;;;5073791;28;20025;-86
2022/09/06 07:20:36;;;;;;;5.93;4.80;;;24.90;73.50;;;;;;5074082;28;20024;-87
2022/09/06 07:23:06;;;;;;;4.75;3.70;;;24.90;73.40;;;;;;5073940;28;20035;-86
2022/09/06 07:25:33;;;;;;;6.00;3.40;;;24.70;74.00;;;;;;5073549;28;20036;-85
2022/09/06 07:28:07;;;;;;;5.57;2.58;;;24.80;74.30;;;;;;5074220;28;20099;-86
2022/09/06 07:30:36;;;;;;;5.22;3.50;;;24.80;74.90;;;;;;5073835;28;20543;-86
2022/09/06 07:33:04;;;;;;;4.05;3.65;;;24.90;75.00;;;;;;5073510;28;20029;-86
2022/09/06 07:35:30;;;;;;;5.40;4.45;;;24.80;73.50;;;;;;5073874;28;20032;-86
2022/09/06 07:37:56;;;;;;;2.03;1.77;;;24.70;74.70;;;;;;5073957;28;20028;-85
2022/09/06 07:40:27;;;;;;;7.03;4.28;;;24.70;74.60;;;;;;5073725;28;20024;-85
2022/09/06 07:42:57;;;;;;;3.80;3.28;;;24.80;73.90;;;;;;5077968;28;20028;-83
2022/09/06 07:45:22;;;;;;;5.22;3.88;;;24.90;74.10;;;;;;5076440;28;20075;-85
2022/09/06 07:47:57;;;;;;;4.43;2.60;;;24.80;74.20;;;;;;5074011;28;20365;-86
2022/09/06 07:50:23;;;;;;;5.18;3.92;;;24.80;74.10;;;;;;5073537;28;20029;-86
2022/09/06 07:52:49;;;;;;;4.15;3.35;;;24.90;73.40;;;;;;5073732;28;20103;-86
2022/09/06 07:55:14;;;;;;;5.28;4.57;;;24.90;72.60;;;;;;5073566;28;20517;-86
2022/09/06 07:57:40;;;;;;;4.68;4.05;;;25.00;74.30;;;;;;5073465;28;20418;-85
2022/09/06 08:00:06;;;;;;;7.22;3.92;;;25.00;73.90;;;;;;5073307;28;20021;-86
2022/09/06 08:02:32;;;;;;;5.97;3.03;;;25.10;74.40;;;;;;5073766;28;20091;-86
2022/09/06 08:04:57;;;;;;;4.05;3.60;;;25.10;74.20;;;;;;5073533;28;20420;-86
2022/09/06 08:07:23;;;;;;;2.78;2.30;;;25.10;71.70;;;;;;5073407;28;20020;-90
2022/09/06 08:09:50;;;;;;;4.63;3.35;;;25.20;71.50;;;;;;5073612;28;20021;-91
2022/09/06 08:12:16;;;;;;;6.55;3.72;;;25.20;72.10;;;;;;5073470;28;20433;-85
2022/09/06 08:14:41;;;;;;;5.10;3.88;;;25.30;71.70;;;;;;5073138;28;20104;-85
2022/09/06 08:17:07;;;;;;;4.93;3.10;;;25.30;73.00;;;;;;5073232;28;20024;-86
2022/09/06 08:19:33;;;;;;;6.25;2.88;;;25.40;73.20;;;;;;5073270;28;20065;-86
2022/09/06 08:21:59;;;;;;;3.50;3.03;;;25.50;71.80;;;;;;5073426;28;20139;-86
2022/09/06 08:24:24;;;;;;;4.95;3.33;;;25.60;71.00;;;;;;5073249;28;20031;-85
2022/09/06 08:26:50;;;;;;;4.03;2.60;;;25.70;69.40;;;;;;5072963;28;20133;-86
2022/09/06 08:29:16;;;;;;;3.83;2.75;;;25.80;69.40;;;;;;5072910;28;20028;-86
2022/09/06 08:31:43;;;;;;;3.58;2.85;;;25.80;69.60;;;;;;5072952;28;20376;-86
2022/09/06 08:34:13;;;;;;;2.95;1.95;;;25.90;69.50;;;;;;5073233;28;20029;-86
2022/09/06 08:36:39;;;;;;;4.43;2.80;;;25.90;70.30;;;;;;5073079;28;20365;-87
2022/09/06 08:39:07;;;;;;;4.90;2.63;;;25.90;70.40;;;;;;5073140;28;20047;-87
2022/09/06 08:41:59;;;;;;;4.00;2.90;;;26.10;69.40;;;;;;5073003;28;20067;-87
2022/09/06 08:44:31;;;;;;;5.30;2.10;;;26.30;69.80;;;;;;5073390;28;20055;-87
2022/09/06 08:47:05;;;;;;;4.22;3.17;;;26.30;69.20;;;;;;5075408;28;20033;-85
2022/09/06 08:49:38;;;;;;;7.85;3.50;;;26.40;67.50;;;;;;5083920;28;20032;-87
2022/09/06 08:52:22;;;;;;;3.75;3.10;;;26.50;68.70;;;;;;5072850;28;20479;-87
2022/09/06 08:54:55;;;;;;;5.40;3.40;;;26.60;68.60;;;;;;5073171;28;20104;-86
2022/09/06 08:57:35;;;;;;;3.47;2.28;;;26.60;67.50;;;;;;5073357;28;20035;-87
2022/09/06 09:00:07;;;;;;;4.38;2.83;;;26.70;66.50;;;;;;5072808;28;20056;-87
2022/09/06 09:02:48;;;;;;;2.80;2.08;;;26.70;67.70;;;;;;5072760;28;20498;-87
2022/09/06 09:05:33;;;;;;;4.15;2.60;;;26.70;67.30;;;;;;5072779;28;20028;-88
2022/09/06 09:08:12;;;;;;;3.63;1.83;;;26.90;66.50;;;;;;5073246;28;20029;-87
2022/09/06 09:10:44;;;;;;;6.00;2.80;;;26.90;66.00;;;;;;5072584;28;20024;-87
2022/09/06 09:13:26;;;;;;;5.25;2.67;;;27.10;65.80;;;;;;5072864;28;20042;-88
2022/09/06 09:15:52;;;;;;;6.28;2.53;;;27.10;64.00;;;;;;5072676;28;20031;-88
2022/09/06 09:18:25;;;;;;;4.80;1.90;;;27.20;63.80;;;;;;5072810;28;20020;-87
2022/09/06 09:20:51;;;;;;;3.83;2.58;;;27.30;64.60;;;;;;5072449;28;20025;-88
2022/09/06 09:23:17;;;;;;;4.30;2.90;;;27.40;63.70;;;;;;5072843;28;20077;-88
2022/09/06 09:25:45;;;;;;;7.05;2.65;;;27.50;64.10;;;;;;5076258;28;20064;-88
2022/09/06 09:28:16;;;;;;;6.78;2.00;;;27.70;64.80;;;;;;5076059;28;20024;-88
2022/09/06 09:30:50;;;;;;;2.50;1.55;;;27.80;65.00;;;;;;5076199;28;20108;-88
2022/09/06 09:33:42;;;;;;;2.85;1.42;;;27.90;61.70;;;;;;5076253;28;20032;-88
2022/09/06 09:36:11;;;;;;;5.35;1.75;;;27.90;61.50;;;;;;5074189;28;20029;-88
2022/09/06 09:38:45;;;;;;;4.68;1.70;;;28.00;60.30;;;;;;5076327;28;20082;-89
2022/09/06 09:41:28;;;;;;;2.83;1.35;;;28.20;60.30;;;;;;5076372;28;20024;-89
2022/09/06 09:44:18;;;;;;;3.83;1.55;;;28.30;59.80;;;;;;5076041;28;20054;-89
2022/09/06 09:46:43;;;;;;;2.45;0.95;;;28.40;59.70;;;;;;5076209;28;20464;-89
2022/09/06 09:49:23;;;;;;;7.00;1.90;;;28.50;59.50;;;;;;5076509;28;20042;-88
2022/09/06 09:52:11;;;;;;;4.15;1.50;;;28.70;59.00;;;;;;5077491;28;20037;-86
2022/09/06 09:54:41;;;;;;;3.67;1.35;;;28.60;59.20;;;;;;5082142;28;20048;-89
2022/09/06 09:57:09;;;;;;;3.53;1.30;;;28.70;59.70;;;;;;5076250;28;20029;-89
2022/09/06 09:59:35;;;;;;;2.92;1.33;;;28.80;59.20;;;;;;5075774;28;20480;-89
2022/09/06 10:02:15;;;;;;;3.58;1.20;;;28.80;58.50;;;;;;5075719;28;20035;-89
2022/09/06 10:04:50;;;;;;;2.38;1.10;;;28.80;58.50;;;;;;5075628;28;20024;-89
2022/09/06 10:07:19;;;;;;;1.95;0.50;;;29.00;57.80;;;;;;5075763;28;20048;-90
2022/09/06 10:10:04;;;;;;;4.47;1.00;;;29.10;57.60;;;;;;5076104;28;20384;-90
2022/09/06 10:12:37;;;;;;;2.25;0.68;;;29.10;58.40;;;;;;5075793;28;20050;-89
2022/09/06 10:15:04;;;;;;;6.22;1.30;;;29.20;57.80;;;;;;5075624;28;20108;-89
2022/09/06 10:17:37;;;;;;;5.93;1.20;;;29.30;56.70;;;;;;5075538;28;20040;-89
2022/09/06 10:20:09;;;;;;;3.67;0.98;;;29.30;56.60;;;;;;5075781;28;20024;-89
2022/09/06 10:22:49;;;;;;;1.63;1.00;;;29.40;56.90;;;;;;5075346;28;20052;-90
2022/09/06 10:25:44;;;;;;;6.18;1.20;;;29.50;56.70;;;;;;5075029;28;20028;-88
2022/09/06 10:28:12;;;;;;;5.30;1.40;;;29.60;56.60;;;;;;5070020;28;20126;-89
2022/09/06 10:31:13;;;;;;;6.60;1.35;;;29.60;55.80;;;;;;5075479;28;20078;-89
2022/09/06 10:34:02;;;;;;;2.65;0.93;;;29.50;56.20;;;;;;5074865;28;20021;-89
2022/09/06 10:36:33;;;;;;;3.38;1.27;;;29.60;56.40;;;;;;5075063;28;20086;-90
2022/09/06 10:39:04;;;;;;;4.20;1.90;;;29.70;56.60;;;;;;5076637;28;20090;-90
2022/09/06 10:41:51;;;;;;;5.22;1.33;;;29.70;56.60;;;;;;5075975;28;20040;-90
2022/09/06 10:44:31;;;;;;;4.75;0.90;;;29.60;56.30;;;;;;5075688;28;20041;-90
2022/09/06 10:47:17;;;;;;;1.90;0.60;;;29.70;55.70;;;;;;5075395;28;20036;-90
2022/09/06 10:49:53;;;;;;;5.50;1.67;;;29.70;55.60;;;;;;5074992;28;20032;-89
2022/09/06 10:52:31;;;;;;;1.77;0.70;;;29.60;55.20;;;;;;5075134;28;20089;-90
2022/09/06 10:55:03;;;;;;;2.03;0.95;;;29.80;55.60;;;;;;5078319;28;20024;-88
2022/09/06 10:57:58;;;;;;;1.48;0.70;;;29.90;54.40;;;;;;5080230;28;20035;-89
2022/09/06 11:00:25;;;;;;;1.88;0.90;;;30.00;54.50;;;;;;5068316;28;20032;-90
2022/09/06 11:03:10;;;;;;;5.53;1.30;;;30.20;54.90;;;;;;5075036;28;20024;-90
2022/09/06 11:05:47;;;;;;;2.13;1.00;;;30.30;53.80;;;;;;5074391;28;20444;-89
2022/09/06 11:08:26;;;;;;;2.00;0.98;;;30.30;54.10;;;;;;5074727;28;20023;-90
2022/09/06 11:10:54;;;;;;;4.78;0.82;;;30.30;54.50;;;;;;5074502;28;20039;-90
2022/09/06 11:13:24;;;;;;;3.30;0.75;;;30.40;54.40;;;;;;5074686;28;20054;-90
2022/09/06 11:16:03;;;;;;;3.00;0.80;;;30.50;54.50;;;;;;5074200;28;20035;-90
2022/09/06 11:18:54;;;;;;;3.00;1.08;;;30.60;54.10;;;;;;5074816;28;20029;-91
2022/09/06 11:22:08;;;;;;;2.90;1.20;;;30.80;54.00;;;;;;5074136;28;20039;-91
2022/09/06 11:24:45;;;;;;;3.63;1.25;;;30.80;53.50;;;;;;5074289;28;20127;-91
2022/09/06 11:27:25;;;;;;;2.70;1.38;;;30.80;53.10;;;;;;5073316;28;20056;-89
2022/09/06 11:29:55;;;;;;;5.68;1.40;;;30.90;53.10;;;;;;5073738;28;20028;-90
2022/09/06 11:32:34;;;;;;;5.38;1.60;;;30.90;53.00;;;;;;5074218;28;20084;-89
2022/09/06 11:35:06;;;;;;;3.58;0.90;;;30.90;53.20;;;;;;5073920;28;20128;-89
2022/09/06 11:37:42;;;;;;;;;;;30.80;53.30;;;;;;5074363;28;20024;-90
2022/09/06 11:40:23;;;;;;;3.25;0.80;;;30.80;53.60;;;;;;5073857;28;19908;-90
2022/09/06 11:42:49;;;;;;;1.47;0.70;;;30.80;53.40;;;;;;5073328;28;20025;-88
2022/09/06 11:45:21;;;;;;;3.17;0.85;;;30.90;53.60;;;;;;5073939;28;20353;-89
2022/09/06 11:47:49;;;;;;;2.05;0.98;;;30.90;53.60;;;;;;5073407;28;20473;-90
2022/09/06 11:50:20;;;;;;;3.13;0.90;;;30.90;53.30;;;;;;5073461;28;20028;-90
2022/09/06 11:53:05;;;;;;;2.38;0.55;;;31.00;53.40;;;;;;5073510;28;20029;-90
2022/09/06 11:55:38;;;;;;;3.20;0.80;;;31.00;53.40;;;;;;5073802;28;20040;-90
2022/09/06 11:58:17;;;;;;;1.08;0.57;;;31.10;53.50;;;;;;5074013;28;20096;-89
2022/09/06 12:00:45;;;;;;;5.40;0.88;;;31.10;53.50;;;;;;5075049;28;20510;-89
2022/09/06 12:03:45;;;;;;;4.10;1.02;;;31.20;53.30;;;;;;5076365;28;20376;-89
2022/09/06 12:06:38;;;;;;;4.75;1.05;;;31.30;53.00;;;;;;5073301;28;20029;-89
2022/09/06 12:09:31;;;;;;;2.58;1.38;;;31.20;52.90;;;;;;5074695;28;20376;-90
2022/09/06 12:11:58;;;;;;;5.25;1.15;;;31.10;52.90;;;;;;5073729;28;20032;-90
2022/09/06 12:14:34;;;;;;;1.90;0.90;;;31.10;53.30;;;;;;5073591;28;20017;-90
2022/09/06 12:17:00;;;;;;;5.03;0.90;;;31.10;53.30;;;;;;5073682;28;20043;-90
2022/09/06 12:19:47;;;;;;;3.28;0.90;;;30.90;53.30;;;;;;5073500;28;20021;-90
2022/09/06 12:22:28;;;;;;;4.53;1.50;;;30.90;54.00;;;;;;5073702;28;20044;-91
2022/09/06 12:24:59;;;;;;;2.40;1.58;;;30.90;53.90;;;;;;5073446;28;20518;-90
2022/09/06 12:27:28;;;;;;;2.63;1.23;;;30.80;54.20;;;;;;5073166;28;20468;-90
2022/09/06 12:30:00;;;;;;;4.03;0.85;;;30.60;54.60;;;;;;5073307;28;20042;-89
2022/09/06 12:32:36;;;;;;;3.65;1.00;;;30.50;55.00;;;;;;5072832;28;20484;-89
2022/09/06 12:35:09;;;;;;;3.65;0.90;;;30.60;54.80;;;;;;5073037;28;20499;-89
2022/09/06 12:37:48;;;;;;;3.13;0.77;;;30.80;54.20;;;;;;5073166;28;20542;-89
2022/09/06 12:40:18;;;;;;;3.90;1.10;;;30.80;54.10;;;;;;5073356;28;20020;-89
2022/09/06 12:42:46;;;;;;;5.13;1.23;;;30.80;54.00;;;;;;5073296;28;20379;-90
2022/09/06 12:45:12;;;;;;;2.38;0.80;;;30.80;54.40;;;;;;5073547;28;20380;-89
2022/09/06 12:47:41;;;;;;;2.33;0.77;;;30.90;54.20;;;;;;5073414;28;20024;-89
2022/09/06 12:50:18;;;;;;;2.53;0.70;;;31.00;54.60;;;;;;5073389;28;20096;-90
2022/09/06 12:52:45;;;;;;;5.88;1.17;;;31.20;54.10;;;;;;5072993;28;20134;-90
2022/09/06 12:55:32;;;;;;;2.20;1.00;;;31.30;54.20;;;;;;5073332;28;20093;-90
2022/09/06 12:58:01;;;;;;;7.32;1.10;;;31.40;53.50;;;;;;5073075;28;20020;-90
2022/09/06 13:00:32;;;;;;;2.53;1.10;;;31.40;54.00;;;;;;5077763;28;20024;-90
2022/09/06 13:03:02;;;;;;;3.60;1.80;;;31.50;54.20;;;;;;5077484;28;20022;-90
2022/09/06 13:05:28;;;;;;;4.45;1.52;;;31.50;53.80;;;;;;5080692;28;20468;-87
2022/09/06 13:08:01;;;;;;;2.55;0.77;;;31.30;53.80;;;;;;5081233;28;20031;-90